createdAt,value
2022-09-04T00:00:50.611Z,984.185
2022-09-04T00:02:50.811Z,984.169
2022-09-04T00:04:50.985Z,984.174
2022-09-04T00:06:49.850Z,984.184
2022-09-04T00:08:51.018Z,984.205
2022-09-04T00:10:50.152Z,984.221
2022-09-04T00:12:50.133Z,984.253
2022-09-04T00:14:49.996Z,984.275
2022-09-04T00:16:50.632Z,984.240
2022-09-04T00:18:49.904Z,984.286
2022-09-04T00:20:50.100Z,984.309
2022-09-04T00:22:50.454Z,984.332
2022-09-04T00:24:50.465Z,984.401
2022-09-04T00:26:49.847Z,984.394
2022-09-04T00:28:50.127Z,984.434
2022-09-04T00:30:50.812Z,984.430
2022-09-04T00:32:50.128Z,984.447
2022-09-04T00:34:49.893Z,984.438
2022-09-04T00:36:50.744Z,984.452
2022-09-04T00:38:49.844Z,984.445
2022-09-04T00:40:49.939Z,984.479
2022-09-04T00:42:50.209Z,984.504
2022-09-04T00:44:51.091Z,984.504
2022-09-04T00:46:50.023Z,984.443
2022-09-04T00:48:50.074Z,984.470
2022-09-04T00:50:50.220Z,984.448
2022-09-04T00:52:59.542Z,984.482
2022-09-04T00:54:50.501Z,984.495
2022-09-04T00:56:50.118Z,984.514
2022-09-04T00:58:50.667Z,984.561
2022-09-04T01:00:50.794Z,984.610
2022-09-04T01:02:50.147Z,984.613
2022-09-04T01:04:50.759Z,984.611
2022-09-04T01:06:50.065Z,984.675
2022-09-04T01:08:56.877Z,984.699
2022-09-04T01:10:50.067Z,984.683
2022-09-04T01:12:50.168Z,984.722
2022-09-04T01:14:53.546Z,984.759
2022-09-04T01:16:50.108Z,984.749
2022-09-04T01:18:50.309Z,984.717
2022-09-04T01:20:50.435Z,984.717
2022-09-04T01:22:50.583Z,984.705
2022-09-04T01:24:50.650Z,984.731
2022-09-04T01:26:50.044Z,984.780
2022-09-04T01:28:50.043Z,984.789
2022-09-04T01:30:50.159Z,984.762
2022-09-04T01:32:50.261Z,984.781
2022-09-04T01:34:49.880Z,984.779
2022-09-04T01:36:50.271Z,984.788
2022-09-04T01:38:50.385Z,984.798
2022-09-04T01:40:50.529Z,984.788
2022-09-04T01:42:50.674Z,984.808
2022-09-04T01:44:49.851Z,984.834
2022-09-04T01:46:50.150Z,984.822
2022-09-04T01:48:50.195Z,984.790
2022-09-04T01:50:50.121Z,984.801
2022-09-04T01:52:50.374Z,984.811
2022-09-04T01:54:50.492Z,984.854
2022-09-04T01:56:50.660Z,984.838
2022-09-04T01:58:50.755Z,984.872
2022-09-04T02:00:57.893Z,984.869
2022-09-04T02:02:53.758Z,984.855
2022-09-04T02:04:50.161Z,984.862
2022-09-04T02:06:50.658Z,984.850
2022-09-04T02:08:50.141Z,984.854
2022-09-04T02:10:50.509Z,984.893
2022-09-04T02:12:50.624Z,984.880
2022-09-04T02:14:50.622Z,984.853
2022-09-04T02:16:50.198Z,984.827
2022-09-04T02:18:50.484Z,984.846
2022-09-04T02:20:50.395Z,984.875
2022-09-04T02:22:50.398Z,984.875
2022-09-04T02:24:50.507Z,984.829
2022-09-04T02:26:50.702Z,984.785
2022-09-04T02:28:49.963Z,984.872
2022-09-04T02:30:54.907Z,984.909
2022-09-04T02:32:50.059Z,984.925
2022-09-04T02:34:50.768Z,984.957
2022-09-04T02:36:50.652Z,984.990
2022-09-04T02:38:50.538Z,984.959
2022-09-04T02:40:50.617Z,984.993
2022-09-04T02:42:50.723Z,984.957
2022-09-04T02:44:49.827Z,985.002
2022-09-04T02:46:50.198Z,985.026
2022-09-04T02:48:50.298Z,984.997
2022-09-04T02:50:50.277Z,984.973
2022-09-04T02:52:50.503Z,985.036
2022-09-04T02:54:50.670Z,985.034
2022-09-04T02:56:50.150Z,984.976
2022-09-04T02:58:50.229Z,984.993
2022-09-04T03:00:50.336Z,984.989
2022-09-04T03:02:50.632Z,984.993
2022-09-04T03:04:50.349Z,984.976
2022-09-04T03:06:49.892Z,984.963
2022-09-04T03:08:53.680Z,984.977
2022-09-04T03:10:49.799Z,985.004
2022-09-04T03:12:49.886Z,985.002
2022-09-04T03:14:49.914Z,985.061
2022-09-04T03:16:50.227Z,985.106
2022-09-04T03:18:50.186Z,985.061
2022-09-04T03:20:50.498Z,985.012
2022-09-04T03:22:50.453Z,985.029
2022-09-04T03:24:50.386Z,985.041
2022-09-04T03:26:50.639Z,985.073
2022-09-04T03:28:50.549Z,985.081
2022-09-04T03:30:50.531Z,985.068
2022-09-04T03:32:50.701Z,985.106
2022-09-04T03:34:51.241Z,985.136
2022-09-04T03:36:50.475Z,985.101
2022-09-04T03:38:51.351Z,985.137
2022-09-04T03:40:50.548Z,985.164
2022-09-04T03:42:49.791Z,985.136
2022-09-04T03:44:52.739Z,985.136
2022-09-04T03:46:50.400Z,985.159
2022-09-04T03:48:50.751Z,985.191
2022-09-04T03:50:50.848Z,985.175
2022-09-04T03:52:49.996Z,985.184
2022-09-04T03:54:50.151Z,985.169
2022-09-04T03:56:50.766Z,985.236
2022-09-04T03:58:49.887Z,985.223
2022-09-04T04:00:50.932Z,985.264
2022-09-04T04:02:50.342Z,985.210
2022-09-04T04:04:50.465Z,985.211
2022-09-04T04:06:50.143Z,985.247
2022-09-04T04:08:50.042Z,985.292
2022-09-04T04:10:50.073Z,985.298
2022-09-04T04:12:50.359Z,985.343
2022-09-04T04:14:50.315Z,985.365
2022-09-04T04:16:56.708Z,985.386
2022-09-04T04:18:50.664Z,985.460
2022-09-04T04:20:50.757Z,985.452
2022-09-04T04:22:49.913Z,985.474
2022-09-04T04:24:49.861Z,985.437
2022-09-04T04:26:55.207Z,985.453
2022-09-04T04:28:50.057Z,985.446
2022-09-04T04:30:50.092Z,985.487
2022-09-04T04:32:50.179Z,985.500
2022-09-04T04:34:50.742Z,985.471
2022-09-04T04:36:49.851Z,985.506
2022-09-04T04:38:50.004Z,985.521
2022-09-04T04:40:50.446Z,985.541
2022-09-04T04:42:50.406Z,985.552
2022-09-04T04:44:50.482Z,985.592
2022-09-04T04:46:50.102Z,985.631
2022-09-04T04:48:50.615Z,985.659
2022-09-04T04:50:50.721Z,985.659
2022-09-04T04:52:49.854Z,985.746
2022-09-04T04:54:50.766Z,985.757
2022-09-04T04:56:50.009Z,985.829
2022-09-04T04:58:49.982Z,985.806
2022-09-04T05:00:49.908Z,985.914
2022-09-04T05:02:50.117Z,985.940
2022-09-04T05:04:50.744Z,985.949
2022-09-04T05:06:49.994Z,985.964
2022-09-04T05:08:49.971Z,986.022
2022-09-04T05:10:49.904Z,986.041
2022-09-04T05:12:50.103Z,986.087
2022-09-04T05:14:50.296Z,986.087
2022-09-04T05:16:56.360Z,986.099
2022-09-04T05:18:50.767Z,986.099
2022-09-04T05:20:50.623Z,986.116
2022-09-04T05:22:50.533Z,986.146
2022-09-04T05:24:56.270Z,986.121
2022-09-04T05:26:50.564Z,986.141
2022-09-04T05:28:50.611Z,986.208
2022-09-04T05:30:50.876Z,986.233
2022-09-04T05:32:50.283Z,986.235
2022-09-04T05:34:49.931Z,986.273
2022-09-04T05:36:50.577Z,986.261
2022-09-04T05:38:51.068Z,986.278
2022-09-04T05:40:50.013Z,986.273
2022-09-04T05:42:50.002Z,986.317
2022-09-04T05:44:50.125Z,986.380
2022-09-04T05:46:52.646Z,986.394
2022-09-04T05:48:50.789Z,986.443
2022-09-04T05:50:50.034Z,986.464
2022-09-04T05:52:50.032Z,986.518
2022-09-04T05:54:49.995Z,986.516
2022-09-04T05:56:50.332Z,986.521
2022-09-04T05:58:50.224Z,986.573
2022-09-04T06:00:50.433Z,986.576
2022-09-04T06:02:50.426Z,986.580
2022-09-04T06:04:50.411Z,986.617
2022-09-04T06:06:49.837Z,986.590
2022-09-04T06:08:50.054Z,986.633
2022-09-04T06:10:50.132Z,986.639
2022-09-04T06:12:50.230Z,986.668
2022-09-04T06:14:50.263Z,986.680
2022-09-04T06:16:49.815Z,986.718
2022-09-04T06:18:49.821Z,986.733
2022-09-04T06:20:50.765Z,986.751
2022-09-04T06:22:57.688Z,986.754
2022-09-04T06:24:49.989Z,986.758
2022-09-04T06:26:50.481Z,986.807
2022-09-04T06:28:50.526Z,986.816
2022-09-04T06:30:50.758Z,986.825
2022-09-04T06:32:50.532Z,986.809
2022-09-04T06:34:50.511Z,986.806
2022-09-04T06:36:50.669Z,986.833
2022-09-04T06:38:50.450Z,986.818
2022-09-04T06:40:50.579Z,986.820
2022-09-04T06:42:49.815Z,986.820
2022-09-04T06:44:50.714Z,986.841
2022-09-04T06:46:50.096Z,986.873
2022-09-04T06:48:50.067Z,986.847
2022-09-04T06:50:49.989Z,986.873
2022-09-04T06:52:50.373Z,986.912
2022-09-04T06:54:50.428Z,986.909
2022-09-04T06:56:52.105Z,986.942
2022-09-04T06:58:50.245Z,986.987
2022-09-04T07:00:50.491Z,986.983
2022-09-04T07:02:50.694Z,986.991
2022-09-04T07:04:50.720Z,986.992
2022-09-04T07:06:50.165Z,987.011
2022-09-04T07:08:50.115Z,987.053
2022-09-04T07:10:50.711Z,987.097
2022-09-04T07:12:50.572Z,987.072
2022-09-04T07:14:50.533Z,987.095
2022-09-04T07:16:49.965Z,987.152
2022-09-04T07:18:50.080Z,987.210
2022-09-04T07:20:50.097Z,987.267
2022-09-04T07:22:50.477Z,987.303
2022-09-04T07:24:50.496Z,987.356
2022-09-04T07:26:49.884Z,987.340
2022-09-04T07:28:50.079Z,987.373
2022-09-04T07:30:50.180Z,987.431
2022-09-04T07:32:50.507Z,987.438
2022-09-04T07:34:49.942Z,987.437
2022-09-04T07:36:50.345Z,987.478
2022-09-04T07:38:52.408Z,987.470
2022-09-04T07:40:50.522Z,987.505
2022-09-04T07:42:50.620Z,987.468
2022-09-04T07:44:49.993Z,987.491
2022-09-04T07:46:50.171Z,987.491
2022-09-04T07:48:50.105Z,987.494
2022-09-04T07:50:51.155Z,987.579
2022-09-04T07:52:50.163Z,987.546
2022-09-04T07:54:50.275Z,987.564
2022-09-04T07:56:49.853Z,987.588
2022-09-04T07:58:49.921Z,987.586
2022-09-04T08:00:50.052Z,987.600
2022-09-04T08:02:50.262Z,987.645
2022-09-04T08:04:50.137Z,987.680
2022-09-04T08:06:50.628Z,987.671
2022-09-04T08:08:50.689Z,987.709
2022-09-04T08:10:49.879Z,987.703
2022-09-04T08:12:51.117Z,987.686
2022-09-04T08:14:50.087Z,987.719
2022-09-04T08:16:53.669Z,987.779
2022-09-04T08:18:50.624Z,987.802
2022-09-04T08:20:49.885Z,987.842
2022-09-04T08:22:52.731Z,987.900
2022-09-04T08:24:50.794Z,987.880
2022-09-04T08:26:50.202Z,987.874
2022-09-04T08:28:50.210Z,987.899
2022-09-04T08:30:50.439Z,987.905
2022-09-04T08:32:49.891Z,987.957
2022-09-04T08:34:50.291Z,987.957
2022-09-04T08:36:50.670Z,987.866
2022-09-04T08:38:49.840Z,987.855
2022-09-04T08:40:52.566Z,987.835
2022-09-04T08:42:50.549Z,987.870
2022-09-04T08:44:50.671Z,987.845
2022-09-04T08:46:50.101Z,987.821
2022-09-04T08:48:50.203Z,987.877
2022-09-04T08:50:50.148Z,987.841
2022-09-04T08:52:50.037Z,987.789
2022-09-04T08:54:50.278Z,987.823
2022-09-04T08:56:50.701Z,987.819
2022-09-04T08:58:55.651Z,987.821
2022-09-04T09:00:50.658Z,987.911
2022-09-04T09:02:50.137Z,987.933
2022-09-04T09:04:49.871Z,987.913
2022-09-04T09:06:50.202Z,987.911
2022-09-04T09:08:50.464Z,987.897
2022-09-04T09:10:50.402Z,987.930
2022-09-04T09:12:50.524Z,987.885
2022-09-04T09:14:50.567Z,987.846
2022-09-04T09:16:50.252Z,987.899
2022-09-04T09:18:50.595Z,987.835
2022-09-04T09:20:49.861Z,987.846
2022-09-04T09:22:49.972Z,987.819
2022-09-04T09:24:49.854Z,987.800
2022-09-04T09:26:50.809Z,987.794
2022-09-04T09:28:49.971Z,987.802
2022-09-04T09:30:50.356Z,987.840
2022-09-04T09:32:50.581Z,987.873
2022-09-04T09:34:50.789Z,987.815
2022-09-04T09:36:50.085Z,987.820
2022-09-04T09:38:50.213Z,987.885
2022-09-04T09:40:50.404Z,987.903
2022-09-04T09:42:50.761Z,987.878
2022-09-04T09:44:50.471Z,987.910
2022-09-04T09:46:49.839Z,987.886
2022-09-04T09:48:49.957Z,987.885
2022-09-04T09:50:49.988Z,987.884
2022-09-04T09:52:50.151Z,987.826
2022-09-04T09:54:50.153Z,987.804
2022-09-04T09:56:54.364Z,987.852
2022-09-04T09:58:50.482Z,987.842
2022-09-04T10:00:50.513Z,987.821
2022-09-04T10:02:50.133Z,987.832
2022-09-04T10:04:50.063Z,987.824
2022-09-04T10:06:51.492Z,987.877
2022-09-04T10:08:50.414Z,987.820
2022-09-04T10:10:50.756Z,987.803
2022-09-04T10:12:50.802Z,987.807
2022-09-04T10:14:50.784Z,987.753
2022-09-04T10:16:50.882Z,987.739
2022-09-04T10:18:49.969Z,987.710
2022-09-04T10:20:50.112Z,987.708
2022-09-04T10:22:50.091Z,987.668
2022-09-04T10:24:50.205Z,987.690
2022-09-04T10:26:50.519Z,987.686
2022-09-04T10:28:49.888Z,987.699
2022-09-04T10:30:50.267Z,987.699
2022-09-04T10:32:50.573Z,987.671
2022-09-04T10:34:49.920Z,987.715
2022-09-04T10:36:50.258Z,987.731
2022-09-04T10:38:50.329Z,987.706
2022-09-04T10:40:51.914Z,987.686
2022-09-04T10:42:49.898Z,987.673
2022-09-04T10:44:50.722Z,987.701
2022-09-04T10:46:50.068Z,987.726
2022-09-04T10:48:50.058Z,987.668
2022-09-04T10:50:50.022Z,987.611
2022-09-04T10:52:50.057Z,987.634
2022-09-04T10:54:50.488Z,987.620
2022-09-04T10:56:50.019Z,987.584
2022-09-04T10:58:50.420Z,987.642
2022-09-04T11:00:50.212Z,987.554
2022-09-04T11:02:50.473Z,987.552
2022-09-04T11:04:49.931Z,987.536
2022-09-04T11:06:50.217Z,987.538
2022-09-04T11:08:50.157Z,987.555
2022-09-04T11:10:50.366Z,987.522
2022-09-04T11:12:50.403Z,987.566
2022-09-04T11:14:50.319Z,987.535
2022-09-04T11:16:51.042Z,987.481
2022-09-04T11:18:49.841Z,987.473
2022-09-04T11:20:49.887Z,987.442
2022-09-04T11:22:50.509Z,987.481
2022-09-04T11:24:50.674Z,987.514
2022-09-04T11:26:50.405Z,987.486
2022-09-04T11:28:50.759Z,987.524
2022-09-04T11:30:50.779Z,987.372
2022-09-04T11:32:50.625Z,987.355
2022-09-04T11:34:50.726Z,987.354
2022-09-04T11:36:49.842Z,987.389
2022-09-04T11:38:50.232Z,987.339
2022-09-04T11:40:50.504Z,987.404
2022-09-04T11:42:50.701Z,987.404
2022-09-04T11:44:50.601Z,987.449
2022-09-04T11:46:49.997Z,987.419
2022-09-04T11:48:50.575Z,987.389
2022-09-04T11:50:50.446Z,987.398
2022-09-04T11:52:50.556Z,987.409
2022-09-04T11:54:50.485Z,987.438
2022-09-04T11:56:50.096Z,987.401
2022-09-04T11:58:50.259Z,987.417
2022-09-04T12:00:50.389Z,987.454
2022-09-04T12:02:50.425Z,987.487
2022-09-04T12:04:50.055Z,987.436
2022-09-04T12:06:50.552Z,987.456
2022-09-04T12:08:50.609Z,987.430
2022-09-04T12:10:49.920Z,987.447
2022-09-04T12:12:50.078Z,987.359
2022-09-04T12:14:50.197Z,987.439
2022-09-04T12:16:50.893Z,987.450
2022-09-04T12:18:50.096Z,987.485
2022-09-04T12:20:50.690Z,987.442
2022-09-04T12:22:50.167Z,987.414
2022-09-04T12:24:50.302Z,987.409
2022-09-04T12:26:58.167Z,987.419
2022-09-04T12:28:49.963Z,987.437
2022-09-04T12:30:49.968Z,987.437
2022-09-04T12:32:49.968Z,987.372
2022-09-04T12:34:50.393Z,987.348
2022-09-04T12:36:50.765Z,987.350
2022-09-04T12:38:49.833Z,987.374
2022-09-04T12:40:49.962Z,987.321
2022-09-04T12:42:50.078Z,987.352
2022-09-04T12:44:50.109Z,987.339
2022-09-04T12:46:50.653Z,987.364
2022-09-04T12:48:50.743Z,987.361
2022-09-04T12:50:49.818Z,987.281
2022-09-04T12:52:49.969Z,987.271
2022-09-04T12:54:50.007Z,987.266
2022-09-04T12:56:50.536Z,987.278
2022-09-04T12:58:50.602Z,987.222
2022-09-04T13:00:51.069Z,987.275
2022-09-04T13:02:50.367Z,987.226
2022-09-04T13:04:50.198Z,987.277
2022-09-04T13:06:53.858Z,987.249
2022-09-04T13:08:50.002Z,987.331
2022-09-04T13:10:49.921Z,987.317
2022-09-04T13:12:49.952Z,987.340
2022-09-04T13:14:50.144Z,987.329
2022-09-04T13:16:55.394Z,987.340
2022-09-04T13:18:50.712Z,987.340
2022-09-04T13:20:49.875Z,987.304
2022-09-04T13:22:50.072Z,987.320
2022-09-04T13:24:50.313Z,987.338
2022-09-04T13:26:49.816Z,987.338
2022-09-04T13:28:50.056Z,987.319
2022-09-04T13:30:50.403Z,987.335
2022-09-04T13:32:50.393Z,987.319
2022-09-04T13:34:49.981Z,987.316
2022-09-04T13:36:50.657Z,987.343
2022-09-04T13:38:50.643Z,987.371
2022-09-04T13:40:49.894Z,987.332
2022-09-04T13:42:52.909Z,987.300
2022-09-04T13:44:49.974Z,987.289
2022-09-04T13:46:50.509Z,987.281
2022-09-04T13:48:50.228Z,987.314
2022-09-04T13:50:50.299Z,987.299
2022-09-04T13:52:50.303Z,987.320
2022-09-04T13:54:50.482Z,987.326
2022-09-04T13:56:50.063Z,987.350
2022-09-04T13:58:50.326Z,987.327
2022-09-04T14:00:50.691Z,987.317
2022-09-04T14:02:50.053Z,987.322
2022-09-04T14:04:50.690Z,987.369
2022-09-04T14:06:50.298Z,987.342
2022-09-04T14:09:06.095Z,987.316
2022-09-04T14:10:50.112Z,987.372
2022-09-04T14:12:54.515Z,987.381
2022-09-04T14:14:50.538Z,987.382
2022-09-04T14:16:49.884Z,987.337
2022-09-04T14:18:50.145Z,987.359
2022-09-04T14:20:51.678Z,987.379
2022-09-04T14:22:52.493Z,987.374
2022-09-04T14:24:49.834Z,987.389
2022-09-04T14:26:52.736Z,987.388
2022-09-04T14:28:50.673Z,987.356
2022-09-04T14:30:51.544Z,987.356
2022-09-04T14:32:50.844Z,987.388
2022-09-04T14:34:50.000Z,987.369
2022-09-04T14:36:50.326Z,987.377
2022-09-04T14:38:50.373Z,987.357
2022-09-04T14:40:50.499Z,987.399
2022-09-04T14:42:50.458Z,987.407
2022-09-04T14:44:50.454Z,987.422
2022-09-04T14:46:51.909Z,987.480
2022-09-04T14:48:50.094Z,987.427
2022-09-04T14:50:50.246Z,987.439
2022-09-04T14:52:50.298Z,987.439
2022-09-04T14:54:50.337Z,987.428
2022-09-04T14:56:49.885Z,987.457
2022-09-04T14:58:51.206Z,987.447
2022-09-04T15:00:50.258Z,987.406
2022-09-04T15:02:50.272Z,987.421
2022-09-04T15:04:50.604Z,987.392
2022-09-04T15:07:11.520Z,987.408
2022-09-04T15:08:50.332Z,987.400
2022-09-04T15:10:50.483Z,987.355
2022-09-04T15:12:50.706Z,987.413
2022-09-04T15:14:52.682Z,987.427
2022-09-04T15:16:50.173Z,987.501
2022-09-04T15:18:50.296Z,987.451
2022-09-04T15:20:50.149Z,987.452
2022-09-04T15:22:50.126Z,987.486
2022-09-04T15:24:50.372Z,987.481
2022-09-04T15:26:50.775Z,987.496
2022-09-04T15:28:50.757Z,987.499
2022-09-04T15:30:50.856Z,987.516
2022-09-04T15:32:50.097Z,987.516
2022-09-04T15:34:49.931Z,987.511
2022-09-04T15:36:50.427Z,987.575
2022-09-04T15:38:50.570Z,987.476
2022-09-04T15:41:16.902Z,987.531
2022-09-04T15:42:50.595Z,987.556
2022-09-04T15:44:50.719Z,987.553
2022-09-04T15:46:50.177Z,987.586
2022-09-04T15:48:50.304Z,987.553
2022-09-04T15:50:50.372Z,987.476
2022-09-04T15:52:50.582Z,987.462
2022-09-04T15:54:50.447Z,987.504
2022-09-04T15:56:49.945Z,987.478
2022-09-04T15:58:49.936Z,987.440
2022-09-04T16:00:50.142Z,987.435
2022-09-04T16:02:50.315Z,987.460
2022-09-04T16:04:50.126Z,987.458
2022-09-04T16:06:50.484Z,987.452
2022-09-04T16:08:50.591Z,987.483
2022-09-04T16:10:50.483Z,987.505
2022-09-04T16:12:50.601Z,987.489
2022-09-04T16:14:50.552Z,987.481
2022-09-04T16:16:49.946Z,987.439
2022-09-04T16:18:50.199Z,987.452
2022-09-04T16:20:50.223Z,987.406
2022-09-04T16:22:50.237Z,987.458
2022-09-04T16:24:50.306Z,987.461
2022-09-04T16:26:49.855Z,987.515
2022-09-04T16:28:50.013Z,987.529
2022-09-04T16:30:50.251Z,987.537
2022-09-04T16:32:50.515Z,987.577
2022-09-04T16:34:50.237Z,987.600
2022-09-04T16:36:50.658Z,987.557
2022-09-04T16:38:50.599Z,987.569
2022-09-04T16:40:50.700Z,987.552
2022-09-04T16:42:50.725Z,987.480
2022-09-04T16:44:49.917Z,987.508
2022-09-04T16:46:50.398Z,987.492
2022-09-04T16:48:50.358Z,987.547
2022-09-04T16:50:50.346Z,987.569
2022-09-04T16:53:13.211Z,987.549
2022-09-04T16:54:50.477Z,987.524
2022-09-04T16:56:50.026Z,987.506
2022-09-04T16:58:50.450Z,987.492
2022-09-04T17:00:50.475Z,987.516
2022-09-04T17:02:51.475Z,987.516
2022-09-04T17:04:50.587Z,987.488
2022-09-04T17:06:50.024Z,987.527
2022-09-04T17:08:50.042Z,987.515
2022-09-04T17:10:50.408Z,987.541
2022-09-04T17:12:50.353Z,987.541
2022-09-04T17:14:50.479Z,987.563
2022-09-04T17:16:50.521Z,987.570
2022-09-04T17:18:50.553Z,987.558
2022-09-04T17:21:38.306Z,987.557
2022-09-04T17:25:40.620Z,987.570
2022-09-04T17:29:06.623Z,987.606
2022-09-04T17:29:07.266Z,987.576
2022-09-04T17:29:33.587Z,987.567
2022-09-04T17:30:50.345Z,987.594
2022-09-04T17:34:51.838Z,987.597
2022-09-04T17:38:05.126Z,987.560
2022-09-04T17:40:21.534Z,987.556
2022-09-04T17:40:45.777Z,987.562
2022-09-04T17:41:35.245Z,987.556
2022-09-04T17:43:15.883Z,987.564
2022-09-04T17:44:50.388Z,987.573
2022-09-04T17:46:50.206Z,987.589
2022-09-04T17:48:50.122Z,987.598
2022-09-04T17:50:50.272Z,987.628
2022-09-04T17:52:50.410Z,987.633
2022-09-04T17:54:50.306Z,987.636
2022-09-04T17:56:50.638Z,987.671
2022-09-04T17:58:50.567Z,987.671
2022-09-04T18:00:50.660Z,987.758
2022-09-04T18:02:50.977Z,987.780
2022-09-04T18:04:49.972Z,987.801
2022-09-04T18:06:50.498Z,987.819
2022-09-04T18:08:56.157Z,987.809
2022-09-04T18:10:50.121Z,987.838
2022-09-04T18:12:50.364Z,987.877
2022-09-04T18:15:27.653Z,987.884
2022-09-04T18:17:12.331Z,987.900
2022-09-04T18:18:50.721Z,987.989
2022-09-04T18:20:52.183Z,988.005
2022-09-04T18:22:50.222Z,988.007
2022-09-04T18:24:50.068Z,988.030
2022-09-04T18:26:50.650Z,988.007
2022-09-04T18:28:51.106Z,988.042
2022-09-04T18:34:31.018Z,988.052
2022-09-04T18:37:13.484Z,988.071
2022-09-04T18:37:14.475Z,988.099
2022-09-04T18:37:40.451Z,988.100
2022-09-04T18:39:09.982Z,988.151
2022-09-04T18:42:39.789Z,988.179
2022-09-04T18:45:50.354Z,988.183
2022-09-04T18:50:26.407Z,988.178
2022-09-04T18:50:41.467Z,988.209
2022-09-04T18:50:41.700Z,988.180
2022-09-04T18:51:19.925Z,988.213
2022-09-04T18:52:50.667Z,988.244
2022-09-04T18:54:50.772Z,988.328
2022-09-04T18:56:50.326Z,988.324
2022-09-04T18:58:50.248Z,988.353
2022-09-04T19:00:50.835Z,988.376
2022-09-04T19:02:54.202Z,988.395
2022-09-04T19:04:49.894Z,988.386
2022-09-04T19:06:50.340Z,988.413
2022-09-04T19:08:50.526Z,988.398
2022-09-04T19:10:50.574Z,988.448
2022-09-04T19:12:50.700Z,988.454
2022-09-04T19:14:50.143Z,988.456
2022-09-04T19:16:50.684Z,988.473
2022-09-04T19:18:51.314Z,988.487
2022-09-04T19:20:50.345Z,988.511
2022-09-04T19:22:50.259Z,988.553
2022-09-04T19:24:50.262Z,988.549
2022-09-04T19:26:50.656Z,988.554
2022-09-04T19:28:53.623Z,988.555
2022-09-04T19:30:50.594Z,988.531
2022-09-04T19:32:49.905Z,988.558
2022-09-04T19:34:50.646Z,988.572
2022-09-04T19:36:49.982Z,988.565
2022-09-04T19:43:48.053Z,988.557
2022-09-04T19:45:58.310Z,988.564
2022-09-04T19:46:09.957Z,988.589
2022-09-04T19:46:10.057Z,988.561
2022-09-04T19:46:51.916Z,988.564
2022-09-04T19:50:04.928Z,988.555
2022-09-04T19:53:20.923Z,988.608
2022-09-04T19:53:21.036Z,988.600
2022-09-04T19:55:23.194Z,988.605
2022-09-04T19:57:31.833Z,988.601
2022-09-04T19:58:50.256Z,988.600
2022-09-04T20:00:50.370Z,988.573
2022-09-04T20:02:50.600Z,988.582
2022-09-04T20:04:50.364Z,988.535
2022-09-04T20:06:49.856Z,988.593
2022-09-04T20:08:52.060Z,988.565
2022-09-04T20:10:50.323Z,988.551
2022-09-04T20:12:51.494Z,988.586
2022-09-04T20:14:50.691Z,988.601
2022-09-04T20:16:50.368Z,988.608
2022-09-04T20:18:50.513Z,988.607
2022-09-04T20:20:50.639Z,988.616
2022-09-04T20:22:49.885Z,988.638
2022-09-04T20:25:02.691Z,988.667
2022-09-04T20:26:50.620Z,988.641
2022-09-04T20:28:49.838Z,988.639
2022-09-04T20:30:49.882Z,988.649
2022-09-04T20:32:56.813Z,988.603
2022-09-04T20:34:50.475Z,988.647
2022-09-04T20:36:50.759Z,988.655
2022-09-04T20:38:49.814Z,988.645
2022-09-04T20:40:50.052Z,988.655
2022-09-04T20:42:57.075Z,988.656
2022-09-04T20:45:52.709Z,988.629
2022-09-04T20:50:20.052Z,988.669
2022-09-04T20:52:47.193Z,988.655
2022-09-04T20:52:48.108Z,988.657
2022-09-04T20:53:13.559Z,988.682
2022-09-04T20:54:49.843Z,988.707
2022-09-04T20:57:25.704Z,988.686
2022-09-04T21:01:16.373Z,988.703
2022-09-04T21:03:16.041Z,988.732
2022-09-04T21:04:50.823Z,988.742
2022-09-04T21:06:50.796Z,988.743
2022-09-04T21:08:49.897Z,988.745
2022-09-04T21:10:49.819Z,988.738
2022-09-04T21:13:12.869Z,988.718
2022-09-04T21:14:49.815Z,988.731
2022-09-04T21:16:50.018Z,988.718
2022-09-04T21:19:11.427Z,988.707
2022-09-04T21:21:01.116Z,988.692
2022-09-04T21:22:50.246Z,988.691
2022-09-04T21:24:50.380Z,988.716
2022-09-04T21:26:49.943Z,988.699
2022-09-04T21:28:49.935Z,988.720
2022-09-04T21:30:50.082Z,988.741
2022-09-04T21:32:50.389Z,988.737
2022-09-04T21:34:50.016Z,988.778
2022-09-04T21:36:50.594Z,988.809
2022-09-04T21:38:57.431Z,988.810
2022-09-04T21:40:53.274Z,988.843
2022-09-04T21:42:50.460Z,988.845
2022-09-04T21:44:52.736Z,988.889
2022-09-04T21:46:50.193Z,988.907
2022-09-04T21:48:52.599Z,988.917
2022-09-04T21:50:52.776Z,988.924
2022-09-04T21:52:56.545Z,988.964
2022-09-04T21:56:36.720Z,988.962
2022-09-04T21:58:41.248Z,988.985
2022-09-04T22:02:33.909Z,989.025
2022-09-04T22:02:34.670Z,989.025
2022-09-04T22:03:02.746Z,989.053
2022-09-04T22:04:50.330Z,989.118
2022-09-04T22:08:13.323Z,989.082
2022-09-04T22:12:11.779Z,989.078
2022-09-04T22:13:35.796Z,989.087
2022-09-04T22:13:37.072Z,989.136
2022-09-04T22:14:49.979Z,989.126
2022-09-04T22:16:50.690Z,989.110
2022-09-04T22:18:49.967Z,989.120
2022-09-04T22:20:50.027Z,989.110
2022-09-04T22:22:50.344Z,989.119
2022-09-04T22:24:50.574Z,989.100
2022-09-04T22:26:50.001Z,989.107
2022-09-04T22:28:50.039Z,989.140
2022-09-04T22:30:53.496Z,989.179
2022-09-04T22:32:50.521Z,989.132
2022-09-04T22:34:49.877Z,989.151
2022-09-04T22:37:01.250Z,989.191
2022-09-04T22:38:50.117Z,989.124
2022-09-04T22:40:57.375Z,989.133
2022-09-04T22:42:50.292Z,989.104
2022-09-04T22:44:51.152Z,989.108
2022-09-04T22:46:50.648Z,989.110
2022-09-04T22:49:12.703Z,989.145
2022-09-04T22:50:51.321Z,989.190
2022-09-04T22:52:50.230Z,989.157
2022-09-04T22:54:50.040Z,989.159
2022-09-04T22:56:50.531Z,989.153
2022-09-04T22:58:50.586Z,989.130
2022-09-04T23:00:50.539Z,989.137
2022-09-04T23:03:10.109Z,989.119
2022-09-04T23:04:49.994Z,989.122
2022-09-04T23:09:54.059Z,989.140
2022-09-04T23:13:16.379Z,989.130
2022-09-04T23:13:45.192Z,989.160
2022-09-04T23:13:45.764Z,989.151
2022-09-04T23:14:50.471Z,989.152
2022-09-04T23:16:49.932Z,989.147
2022-09-04T23:19:12.720Z,989.207
2022-09-04T23:26:31.815Z,989.215
2022-09-04T23:26:40.749Z,989.188
2022-09-04T23:26:40.902Z,989.188
2022-09-04T23:27:02.171Z,989.157
2022-09-04T23:28:52.649Z,989.177
2022-09-04T23:30:50.349Z,989.170
2022-09-04T23:32:50.647Z,989.109
2022-09-04T23:35:14.011Z,989.086
2022-09-04T23:36:49.877Z,989.111
2022-09-04T23:38:49.869Z,989.145
2022-09-04T23:40:49.904Z,989.116
2022-09-04T23:42:50.043Z,989.114
2022-09-04T23:44:50.033Z,989.038
2022-09-04T23:46:50.584Z,989.048
2022-09-04T23:48:49.999Z,989.051
2022-09-04T23:50:50.172Z,989.027
2022-09-04T23:52:50.407Z,989.019
2022-09-04T23:54:50.364Z,988.995
2022-09-04T23:56:49.855Z,988.986
2022-09-04T23:58:52.515Z,988.996
